sensor_id;sensor_type;location;lat;lon;timestamp;P1;durP1;ratioP1;P2;durP2;ratioP2
27580;SDS011;63557;52.302;7.964;2023-03-01T00:03:14;26.67;;;12.43;;
27580;SDS011;63557;52.302;7.964;2023-03-01T00:08:14;21.38;;;12.27;;
27580;SDS011;63557;52.302;7.964;2023-03-01T00:13:14;22.27;;;12.83;;
27580;SDS011;63557;52.302;7.964;2023-03-01T00:18:15;20.30;;;13.02;;
27580;SDS011;63557;52.302;7.964;2023-03-01T00:23:15;24.92;;;13.10;;
27580;SDS011;63557;52.302;7.964;2023-03-01T00:28:16;23.93;;;12.30;;
27580;SDS011;63557;52.302;7.964;2023-03-01T00:33:16;26.83;;;13.75;;
27580;SDS011;63557;52.302;7.964;2023-03-01T00:38:17;23.33;;;12.63;;
27580;SDS011;63557;52.302;7.964;2023-03-01T00:43:17;22.75;;;12.55;;
27580;SDS011;63557;52.302;7.964;2023-03-01T00:48:18;21.98;;;12.40;;
27580;SDS011;63557;52.302;7.964;2023-03-01T00:53:18;20.05;;;11.30;;
27580;SDS011;63557;52.302;7.964;2023-03-01T00:58:18;24.23;;;13.18;;
27580;SDS011;63557;52.302;7.964;2023-03-01T01:03:19;23.90;;;13.13;;
27580;SDS011;63557;52.302;7.964;2023-03-01T01:08:20;23.48;;;13.23;;
27580;SDS011;63557;52.302;7.964;2023-03-01T01:13:20;24.83;;;13.48;;
27580;SDS011;63557;52.302;7.964;2023-03-01T01:18:22;26.33;;;12.90;;
27580;SDS011;63557;52.302;7.964;2023-03-01T01:23:22;24.17;;;13.05;;
27580;SDS011;63557;52.302;7.964;2023-03-01T01:28:23;25.73;;;13.32;;
27580;SDS011;63557;52.302;7.964;2023-03-01T01:33:23;23.65;;;13.35;;
27580;SDS011;63557;52.302;7.964;2023-03-01T01:38:23;20.75;;;12.75;;
27580;SDS011;63557;52.302;7.964;2023-03-01T01:43:26;24.98;;;13.75;;
27580;SDS011;63557;52.302;7.964;2023-03-01T01:49:01;25.85;;;14.23;;
27580;SDS011;63557;52.302;7.964;2023-03-01T01:53:56;25.75;;;13.13;;
27580;SDS011;63557;52.302;7.964;2023-03-01T01:58:59;27.25;;;14.23;;
27580;SDS011;63557;52.302;7.964;2023-03-01T02:04:01;27.25;;;14.15;;
27580;SDS011;63557;52.302;7.964;2023-03-01T02:09:06;27.83;;;15.38;;
27580;SDS011;63557;52.302;7.964;2023-03-01T02:14:08;28.73;;;15.23;;
27580;SDS011;63557;52.302;7.964;2023-03-01T02:19:08;29.98;;;16.23;;
27580;SDS011;63557;52.302;7.964;2023-03-01T02:24:35;29.92;;;15.82;;
27580;SDS011;63557;52.302;7.964;2023-03-01T02:29:31;28.73;;;16.38;;
27580;SDS011;63557;52.302;7.964;2023-03-01T02:34:32;27.98;;;16.02;;
27580;SDS011;63557;52.302;7.964;2023-03-01T02:39:34;32.28;;;17.40;;
27580;SDS011;63557;52.302;7.964;2023-03-01T02:44:36;31.07;;;17.20;;
27580;SDS011;63557;52.302;7.964;2023-03-01T02:49:37;24.33;;;15.63;;
27580;SDS011;63557;52.302;7.964;2023-03-01T02:54:43;30.80;;;16.58;;
27580;SDS011;63557;52.302;7.964;2023-03-01T02:59:45;29.90;;;15.80;;
27580;SDS011;63557;52.302;7.964;2023-03-01T03:04:46;27.95;;;15.70;;
27580;SDS011;63557;52.302;7.964;2023-03-01T03:09:47;26.25;;;14.85;;
27580;SDS011;63557;52.302;7.964;2023-03-01T03:14:47;27.83;;;15.50;;
27580;SDS011;63557;52.302;7.964;2023-03-01T03:19:49;34.35;;;16.65;;
27580;SDS011;63557;52.302;7.964;2023-03-01T03:24:49;28.85;;;15.93;;
27580;SDS011;63557;52.302;7.964;2023-03-01T03:29:49;32.08;;;17.63;;
27580;SDS011;63557;52.302;7.964;2023-03-01T03:34:50;33.45;;;18.05;;
27580;SDS011;63557;52.302;7.964;2023-03-01T03:39:50;32.35;;;17.25;;
27580;SDS011;63557;52.302;7.964;2023-03-01T03:44:54;27.75;;;17.40;;
27580;SDS011;63557;52.302;7.964;2023-03-01T03:49:55;34.33;;;18.13;;
27580;SDS011;63557;52.302;7.964;2023-03-01T03:54:55;31.77;;;18.63;;
27580;SDS011;63557;52.302;7.964;2023-03-01T03:59:55;37.72;;;18.52;;
27580;SDS011;63557;52.302;7.964;2023-03-01T04:04:56;31.80;;;17.70;;
27580;SDS011;63557;52.302;7.964;2023-03-01T04:09:56;31.57;;;18.43;;
27580;SDS011;63557;52.302;7.964;2023-03-01T04:14:56;34.95;;;17.80;;
27580;SDS011;63557;52.302;7.964;2023-03-01T04:19:58;31.92;;;17.45;;
27580;SDS011;63557;52.302;7.964;2023-03-01T04:24:58;29.63;;;17.52;;
27580;SDS011;63557;52.302;7.964;2023-03-01T04:30:06;32.60;;;19.10;;
27580;SDS011;63557;52.302;7.964;2023-03-01T04:35:07;27.92;;;17.30;;
27580;SDS011;63557;52.302;7.964;2023-03-01T04:40:08;38.53;;;18.13;;
27580;SDS011;63557;52.302;7.964;2023-03-01T04:45:15;33.63;;;17.98;;
27580;SDS011;63557;52.302;7.964;2023-03-01T04:50:17;34.08;;;18.83;;
27580;SDS011;63557;52.302;7.964;2023-03-01T04:55:20;35.47;;;19.00;;
27580;SDS011;63557;52.302;7.964;2023-03-01T05:00:20;34.03;;;19.85;;
27580;SDS011;63557;52.302;7.964;2023-03-01T05:05:25;33.83;;;18.48;;
27580;SDS011;63557;52.302;7.964;2023-03-01T05:10:26;33.83;;;18.38;;
27580;SDS011;63557;52.302;7.964;2023-03-01T05:15:30;39.40;;;18.65;;
27580;SDS011;63557;52.302;7.964;2023-03-01T05:20:31;37.22;;;20.40;;
27580;SDS011;63557;52.302;7.964;2023-03-01T05:25:32;38.42;;;19.33;;
27580;SDS011;63557;52.302;7.964;2023-03-01T05:30:33;34.97;;;19.88;;
27580;SDS011;63557;52.302;7.964;2023-03-01T05:35:34;37.72;;;19.60;;
27580;SDS011;63557;52.302;7.964;2023-03-01T05:40:34;35.75;;;19.13;;
27580;SDS011;63557;52.302;7.964;2023-03-01T05:45:36;37.20;;;20.15;;
27580;SDS011;63557;52.302;7.964;2023-03-01T05:50:37;36.90;;;21.38;;
27580;SDS011;63557;52.302;7.964;2023-03-01T05:55:39;41.38;;;20.83;;
27580;SDS011;63557;52.302;7.964;2023-03-01T06:00:40;49.63;;;22.30;;
27580;SDS011;63557;52.302;7.964;2023-03-01T06:05:40;39.92;;;22.65;;
27580;SDS011;63557;52.302;7.964;2023-03-01T06:10:41;40.80;;;20.75;;
27580;SDS011;63557;52.302;7.964;2023-03-01T06:15:41;37.63;;;21.02;;
27580;SDS011;63557;52.302;7.964;2023-03-01T06:20:41;42.78;;;21.30;;
27580;SDS011;63557;52.302;7.964;2023-03-01T06:25:42;45.33;;;21.65;;
27580;SDS011;63557;52.302;7.964;2023-03-01T06:30:42;37.33;;;20.77;;
27580;SDS011;63557;52.302;7.964;2023-03-01T06:35:43;48.33;;;21.50;;
27580;SDS011;63557;52.302;7.964;2023-03-01T06:40:43;36.17;;;21.15;;
27580;SDS011;63557;52.302;7.964;2023-03-01T06:45:43;42.72;;;22.17;;
27580;SDS011;63557;52.302;7.964;2023-03-01T06:50:44;49.60;;;23.60;;
27580;SDS011;63557;52.302;7.964;2023-03-01T06:55:44;69.95;;;32.88;;
27580;SDS011;63557;52.302;7.964;2023-03-01T07:00:44;47.35;;;25.83;;
27580;SDS011;63557;52.302;7.964;2023-03-01T07:05:45;48.65;;;26.08;;
27580;SDS011;63557;52.302;7.964;2023-03-01T07:10:45;43.17;;;25.23;;
27580;SDS011;63557;52.302;7.964;2023-03-01T07:15:45;48.65;;;25.77;;
27580;SDS011;63557;52.302;7.964;2023-03-01T07:20:46;49.08;;;25.77;;
27580;SDS011;63557;52.302;7.964;2023-03-01T07:25:53;49.70;;;25.83;;
27580;SDS011;63557;52.302;7.964;2023-03-01T07:30:53;48.42;;;25.05;;
27580;SDS011;63557;52.302;7.964;2023-03-01T07:35:57;48.60;;;23.98;;
27580;SDS011;63557;52.302;7.964;2023-03-01T07:40:59;45.28;;;23.58;;
27580;SDS011;63557;52.302;7.964;2023-03-01T07:46:00;45.83;;;24.85;;
27580;SDS011;63557;52.302;7.964;2023-03-01T07:51:01;46.22;;;23.42;;
27580;SDS011;63557;52.302;7.964;2023-03-01T08:01:03;36.87;;;22.43;;
27580;SDS011;63557;52.302;7.964;2023-03-01T08:06:04;39.60;;;24.08;;
27580;SDS011;63557;52.302;7.964;2023-03-01T08:11:06;44.22;;;24.90;;
27580;SDS011;63557;52.302;7.964;2023-03-01T08:16:08;42.83;;;24.33;;
27580;SDS011;63557;52.302;7.964;2023-03-01T08:21:10;42.15;;;25.48;;
27580;SDS011;63557;52.302;7.964;2023-03-01T08:26:15;39.22;;;24.45;;
27580;SDS011;63557;52.302;7.964;2023-03-01T08:31:21;50.55;;;26.90;;
27580;SDS011;63557;52.302;7.964;2023-03-01T08:36:22;42.75;;;23.70;;
27580;SDS011;63557;52.302;7.964;2023-03-01T08:41:23;35.05;;;23.02;;
27580;SDS011;63557;52.302;7.964;2023-03-01T08:46:25;42.90;;;21.33;;
27580;SDS011;63557;52.302;7.964;2023-03-01T08:51:26;45.10;;;21.20;;
27580;SDS011;63557;52.302;7.964;2023-03-01T08:56:26;39.85;;;21.17;;
27580;SDS011;63557;52.302;7.964;2023-03-01T09:01:26;35.03;;;19.73;;
27580;SDS011;63557;52.302;7.964;2023-03-01T09:06:29;31.17;;;19.13;;
27580;SDS011;63557;52.302;7.964;2023-03-01T09:11:29;35.83;;;18.70;;
27580;SDS011;63557;52.302;7.964;2023-03-01T09:16:30;31.70;;;19.35;;
27580;SDS011;63557;52.302;7.964;2023-03-01T09:26:36;27.52;;;15.43;;
27580;SDS011;63557;52.302;7.964;2023-03-01T09:31:36;19.33;;;10.88;;
27580;SDS011;63557;52.302;7.964;2023-03-01T09:36:37;16.63;;;7.70;;
27580;SDS011;63557;52.302;7.964;2023-03-01T09:46:40;12.13;;;6.82;;
27580;SDS011;63557;52.302;7.964;2023-03-01T09:51:42;11.80;;;7.07;;
27580;SDS011;63557;52.302;7.964;2023-03-01T09:56:46;11.07;;;7.50;;
27580;SDS011;63557;52.302;7.964;2023-03-01T10:01:58;8.13;;;6.57;;
27580;SDS011;63557;52.302;7.964;2023-03-01T10:07:14;12.00;;;6.28;;
27580;SDS011;63557;52.302;7.964;2023-03-01T10:12:19;10.25;;;6.90;;
27580;SDS011;63557;52.302;7.964;2023-03-01T10:22:39;19.50;;;8.43;;
27580;SDS011;63557;52.302;7.964;2023-03-01T10:27:53;11.97;;;7.57;;
27580;SDS011;63557;52.302;7.964;2023-03-01T10:32:54;12.85;;;7.60;;
27580;SDS011;63557;52.302;7.964;2023-03-01T10:38:04;13.02;;;8.82;;
27580;SDS011;63557;52.302;7.964;2023-03-01T10:43:05;10.32;;;8.35;;
27580;SDS011;63557;52.302;7.964;2023-03-01T10:48:13;15.93;;;9.07;;
27580;SDS011;63557;52.302;7.964;2023-03-01T10:53:28;16.70;;;8.65;;
27580;SDS011;63557;52.302;7.964;2023-03-01T10:58:29;14.55;;;9.25;;
27580;SDS011;63557;52.302;7.964;2023-03-01T11:13:34;11.68;;;8.40;;
27580;SDS011;63557;52.302;7.964;2023-03-01T11:18:35;16.40;;;8.90;;
27580;SDS011;63557;52.302;7.964;2023-03-01T11:23:35;13.05;;;8.82;;
27580;SDS011;63557;52.302;7.964;2023-03-01T11:28:37;9.48;;;7.75;;
27580;SDS011;63557;52.302;7.964;2023-03-01T11:38:40;10.23;;;8.17;;
27580;SDS011;63557;52.302;7.964;2023-03-01T11:43:48;14.95;;;8.38;;
27580;SDS011;63557;52.302;7.964;2023-03-01T11:49:33;24.88;;;8.30;;
27580;SDS011;63557;52.302;7.964;2023-03-01T11:54:27;13.25;;;7.80;;
27580;SDS011;63557;52.302;7.964;2023-03-01T12:15:08;13.87;;;8.20;;
27580;SDS011;63557;52.302;7.964;2023-03-01T12:20:18;13.32;;;8.57;;
27580;SDS011;63557;52.302;7.964;2023-03-01T12:25:39;16.67;;;9.02;;
27580;SDS011;63557;52.302;7.964;2023-03-01T12:51:18;16.27;;;7.05;;
27580;SDS011;63557;52.302;7.964;2023-03-01T12:56:21;15.45;;;6.95;;
27580;SDS011;63557;52.302;7.964;2023-03-01T13:11:58;9.07;;;6.13;;
27580;SDS011;63557;52.302;7.964;2023-03-01T13:16:58;32.37;;;6.67;;
27580;SDS011;63557;52.302;7.964;2023-03-01T13:21:58;22.63;;;6.47;;
27580;SDS011;63557;52.302;7.964;2023-03-01T13:27:41;13.05;;;5.78;;
27580;SDS011;63557;52.302;7.964;2023-03-01T13:37:33;22.42;;;5.15;;
27580;SDS011;63557;52.302;7.964;2023-03-01T13:42:36;11.55;;;5.57;;
27580;SDS011;63557;52.302;7.964;2023-03-01T13:47:40;5.43;;;4.68;;
27580;SDS011;63557;52.302;7.964;2023-03-01T13:52:59;9.18;;;4.97;;
27580;SDS011;63557;52.302;7.964;2023-03-01T13:58:00;7.75;;;4.75;;
27580;SDS011;63557;52.302;7.964;2023-03-01T14:03:02;5.03;;;4.53;;
27580;SDS011;63557;52.302;7.964;2023-03-01T14:08:05;7.07;;;4.53;;
27580;SDS011;63557;52.302;7.964;2023-03-01T14:18:25;7.22;;;4.55;;
27580;SDS011;63557;52.302;7.964;2023-03-01T14:28:30;9.25;;;6.10;;
27580;SDS011;63557;52.302;7.964;2023-03-01T14:33:34;5.28;;;4.60;;
27580;SDS011;63557;52.302;7.964;2023-03-01T14:38:42;8.30;;;5.38;;
27580;SDS011;63557;52.302;7.964;2023-03-01T14:43:44;7.32;;;5.30;;
27580;SDS011;63557;52.302;7.964;2023-03-01T14:48:45;7.20;;;4.78;;
27580;SDS011;63557;52.302;7.964;2023-03-01T14:53:45;6.63;;;5.30;;
27580;SDS011;63557;52.302;7.964;2023-03-01T14:58:45;5.70;;;4.87;;
27580;SDS011;63557;52.302;7.964;2023-03-01T15:03:49;9.45;;;5.40;;
27580;SDS011;63557;52.302;7.964;2023-03-01T15:08:51;6.72;;;4.80;;
27580;SDS011;63557;52.302;7.964;2023-03-01T15:13:52;8.15;;;5.53;;
27580;SDS011;63557;52.302;7.964;2023-03-01T15:18:54;7.35;;;4.32;;
27580;SDS011;63557;52.302;7.964;2023-03-01T15:29:04;4.65;;;3.95;;
27580;SDS011;63557;52.302;7.964;2023-03-01T15:34:21;5.03;;;4.10;;
27580;SDS011;63557;52.302;7.964;2023-03-01T15:39:41;8.25;;;4.07;;
27580;SDS011;63557;52.302;7.964;2023-03-01T15:44:43;14.45;;;5.13;;
27580;SDS011;63557;52.302;7.964;2023-03-01T15:49:45;7.75;;;3.75;;
27580;SDS011;63557;52.302;7.964;2023-03-01T15:54:45;11.10;;;4.88;;
27580;SDS011;63557;52.302;7.964;2023-03-01T15:59:46;5.90;;;4.38;;
27580;SDS011;63557;52.302;7.964;2023-03-01T16:04:46;4.93;;;3.65;;
27580;SDS011;63557;52.302;7.964;2023-03-01T16:09:47;7.45;;;3.90;;
27580;SDS011;63557;52.302;7.964;2023-03-01T16:14:48;5.87;;;3.90;;
27580;SDS011;63557;52.302;7.964;2023-03-01T16:19:48;10.90;;;4.10;;
27580;SDS011;63557;52.302;7.964;2023-03-01T16:24:49;7.30;;;4.18;;
27580;SDS011;63557;52.302;7.964;2023-03-01T16:29:49;7.87;;;4.37;;
27580;SDS011;63557;52.302;7.964;2023-03-01T16:34:49;5.70;;;3.97;;
27580;SDS011;63557;52.302;7.964;2023-03-01T16:39:50;6.07;;;4.80;;
27580;SDS011;63557;52.302;7.964;2023-03-01T16:44:54;9.18;;;4.78;;
27580;SDS011;63557;52.302;7.964;2023-03-01T16:49:55;9.98;;;4.75;;
27580;SDS011;63557;52.302;7.964;2023-03-01T16:54:55;17.10;;;5.13;;
27580;SDS011;63557;52.302;7.964;2023-03-01T16:59:56;14.50;;;4.88;;
27580;SDS011;63557;52.302;7.964;2023-03-01T17:04:56;7.47;;;5.13;;
27580;SDS011;63557;52.302;7.964;2023-03-01T17:09:57;10.00;;;5.38;;
27580;SDS011;63557;52.302;7.964;2023-03-01T17:14:57;8.93;;;5.32;;
27580;SDS011;63557;52.302;7.964;2023-03-01T17:19:58;17.10;;;6.22;;
27580;SDS011;63557;52.302;7.964;2023-03-01T17:24:58;15.40;;;8.37;;
27580;SDS011;63557;52.302;7.964;2023-03-01T17:29:58;16.42;;;8.68;;
27580;SDS011;63557;52.302;7.964;2023-03-01T17:34:59;10.40;;;5.23;;
27580;SDS011;63557;52.302;7.964;2023-03-01T17:39:59;9.13;;;6.13;;
27580;SDS011;63557;52.302;7.964;2023-03-01T17:44:59;10.87;;;5.87;;
27580;SDS011;63557;52.302;7.964;2023-03-01T17:50:00;11.57;;;6.17;;
27580;SDS011;63557;52.302;7.964;2023-03-01T17:55:00;15.75;;;6.57;;
27580;SDS011;63557;52.302;7.964;2023-03-01T18:00:00;14.27;;;6.22;;
27580;SDS011;63557;52.302;7.964;2023-03-01T18:05:11;17.33;;;8.07;;
27580;SDS011;63557;52.302;7.964;2023-03-01T18:10:12;11.98;;;7.78;;
27580;SDS011;63557;52.302;7.964;2023-03-01T18:15:12;13.68;;;8.55;;
27580;SDS011;63557;52.302;7.964;2023-03-01T18:20:12;17.67;;;9.10;;
27580;SDS011;63557;52.302;7.964;2023-03-01T18:25:14;17.70;;;8.65;;
27580;SDS011;63557;52.302;7.964;2023-03-01T18:30:14;19.13;;;10.75;;
27580;SDS011;63557;52.302;7.964;2023-03-01T18:35:15;17.27;;;9.90;;
27580;SDS011;63557;52.302;7.964;2023-03-01T18:40:15;19.08;;;9.93;;
27580;SDS011;63557;52.302;7.964;2023-03-01T18:45:16;19.45;;;9.82;;
27580;SDS011;63557;52.302;7.964;2023-03-01T18:50:18;25.13;;;13.82;;
27580;SDS011;63557;52.302;7.964;2023-03-01T18:55:18;31.20;;;13.25;;
27580;SDS011;63557;52.302;7.964;2023-03-01T19:00:19;30.27;;;16.20;;
27580;SDS011;63557;52.302;7.964;2023-03-01T19:05:19;26.55;;;13.77;;
27580;SDS011;63557;52.302;7.964;2023-03-01T19:10:20;25.30;;;13.20;;
27580;SDS011;63557;52.302;7.964;2023-03-01T19:15:20;27.52;;;13.95;;
27580;SDS011;63557;52.302;7.964;2023-03-01T19:20:22;28.25;;;14.82;;
27580;SDS011;63557;52.302;7.964;2023-03-01T19:25:22;28.33;;;12.70;;
27580;SDS011;63557;52.302;7.964;2023-03-01T19:30:22;26.02;;;13.73;;
27580;SDS011;63557;52.302;7.964;2023-03-01T19:35:23;26.92;;;14.68;;
27580;SDS011;63557;52.302;7.964;2023-03-01T19:40:24;32.95;;;13.95;;
27580;SDS011;63557;52.302;7.964;2023-03-01T19:45:24;24.60;;;14.60;;
27580;SDS011;63557;52.302;7.964;2023-03-01T19:50:24;31.05;;;15.45;;
27580;SDS011;63557;52.302;7.964;2023-03-01T19:55:25;31.13;;;15.55;;
27580;SDS011;63557;52.302;7.964;2023-03-01T20:00:25;37.13;;;15.32;;
27580;SDS011;63557;52.302;7.964;2023-03-01T20:05:26;29.48;;;16.63;;
27580;SDS011;63557;52.302;7.964;2023-03-01T20:10:30;42.78;;;16.92;;
27580;SDS011;63557;52.302;7.964;2023-03-01T20:15:31;28.60;;;16.27;;
27580;SDS011;63557;52.302;7.964;2023-03-01T20:20:31;33.53;;;16.70;;
27580;SDS011;63557;52.302;7.964;2023-03-01T20:25:31;32.20;;;16.17;;
27580;SDS011;63557;52.302;7.964;2023-03-01T20:30:32;32.42;;;18.02;;
27580;SDS011;63557;52.302;7.964;2023-03-01T20:35:32;33.13;;;17.30;;
27580;SDS011;63557;52.302;7.964;2023-03-01T20:40:35;35.90;;;15.77;;
27580;SDS011;63557;52.302;7.964;2023-03-01T20:45:36;32.63;;;15.30;;
27580;SDS011;63557;52.302;7.964;2023-03-01T20:50:38;31.60;;;16.73;;
27580;SDS011;63557;52.302;7.964;2023-03-01T20:55:39;39.35;;;22.10;;
27580;SDS011;63557;52.302;7.964;2023-03-01T21:00:39;33.42;;;14.70;;
27580;SDS011;63557;52.302;7.964;2023-03-01T21:05:40;24.00;;;13.63;;
27580;SDS011;63557;52.302;7.964;2023-03-01T21:10:40;24.40;;;13.20;;
27580;SDS011;63557;52.302;7.964;2023-03-01T21:15:41;23.05;;;12.57;;
27580;SDS011;63557;52.302;7.964;2023-03-01T21:20:41;30.02;;;13.20;;
27580;SDS011;63557;52.302;7.964;2023-03-01T21:25:41;22.17;;;12.48;;
27580;SDS011;63557;52.302;7.964;2023-03-01T21:30:42;24.35;;;12.73;;
27580;SDS011;63557;52.302;7.964;2023-03-01T21:35:42;27.20;;;12.80;;
27580;SDS011;63557;52.302;7.964;2023-03-01T21:40:42;23.60;;;12.10;;
27580;SDS011;63557;52.302;7.964;2023-03-01T21:45:43;20.15;;;11.50;;
27580;SDS011;63557;52.302;7.964;2023-03-01T21:50:43;21.25;;;12.40;;
27580;SDS011;63557;52.302;7.964;2023-03-01T21:55:47;21.40;;;12.00;;
27580;SDS011;63557;52.302;7.964;2023-03-01T22:00:47;21.53;;;11.97;;
27580;SDS011;63557;52.302;7.964;2023-03-01T22:05:58;21.98;;;13.27;;
27580;SDS011;63557;52.302;7.964;2023-03-01T22:11:01;24.33;;;12.20;;
27580;SDS011;63557;52.302;7.964;2023-03-01T22:16:01;21.52;;;12.07;;
27580;SDS011;63557;52.302;7.964;2023-03-01T22:21:04;26.50;;;12.95;;
27580;SDS011;63557;52.302;7.964;2023-03-01T22:26:06;21.23;;;12.48;;
27580;SDS011;63557;52.302;7.964;2023-03-01T22:31:06;26.23;;;13.30;;
27580;SDS011;63557;52.302;7.964;2023-03-01T22:36:06;21.17;;;12.47;;
27580;SDS011;63557;52.302;7.964;2023-03-01T22:41:07;25.38;;;12.82;;
27580;SDS011;63557;52.302;7.964;2023-03-01T22:46:09;33.30;;;15.52;;
27580;SDS011;63557;52.302;7.964;2023-03-01T22:51:14;22.05;;;13.40;;
27580;SDS011;63557;52.302;7.964;2023-03-01T22:56:16;23.48;;;14.07;;
27580;SDS011;63557;52.302;7.964;2023-03-01T23:01:18;22.02;;;13.45;;
27580;SDS011;63557;52.302;7.964;2023-03-01T23:06:20;24.95;;;13.07;;
27580;SDS011;63557;52.302;7.964;2023-03-01T23:11:21;24.98;;;13.75;;
27580;SDS011;63557;52.302;7.964;2023-03-01T23:16:22;26.02;;;14.15;;
27580;SDS011;63557;52.302;7.964;2023-03-01T23:21:26;22.13;;;13.68;;
27580;SDS011;63557;52.302;7.964;2023-03-01T23:26:27;25.40;;;14.32;;
27580;SDS011;63557;52.302;7.964;2023-03-01T23:31:27;26.17;;;14.27;;
27580;SDS011;63557;52.302;7.964;2023-03-01T23:36:30;34.30;;;17.00;;
27580;SDS011;63557;52.302;7.964;2023-03-01T23:41:31;42.95;;;18.65;;
27580;SDS011;63557;52.302;7.964;2023-03-01T23:46:33;33.65;;;16.65;;
27580;SDS011;63557;52.302;7.964;2023-03-01T23:51:34;35.83;;;16.90;;
27580;SDS011;63557;52.302;7.964;2023-03-01T23:56:35;33.60;;;16.45;;
